createdAt,value
2023-04-10T00:00:00.545Z,98632.84
2023-04-10T00:02:30.861Z,98637.56
2023-04-10T00:05:03.834Z,98631.28
2023-04-10T00:07:34.338Z,98630.50
2023-04-10T00:10:04.530Z,98636.88
2023-04-10T00:12:34.621Z,98631.03
2023-04-10T00:15:04.742Z,98631.44
2023-04-10T00:17:34.900Z,98629.56
2023-04-10T00:20:08.919Z,98631.28
2023-04-10T00:22:39.016Z,98632.81
2023-04-10T00:25:10.112Z,98628.53
2023-04-10T00:27:40.196Z,98630.06
2023-04-10T00:30:11.406Z,98627.81
2023-04-10T00:32:41.729Z,98627.13
2023-04-10T00:35:14.782Z,98631.75
2023-04-10T00:37:44.960Z,98627.13
2023-04-10T00:40:15.658Z,98620.94
2023-04-10T00:42:45.803Z,98624.88
2023-04-10T00:45:15.927Z,98616.94
2023-04-10T00:47:46.074Z,98619.09
2023-04-10T00:50:19.279Z,98625.81
2023-04-10T00:52:49.468Z,98625.53
2023-04-10T00:55:19.612Z,98631.88
2023-04-10T00:57:50.857Z,98635.09
2023-04-10T01:00:21.837Z,98620.88
2023-04-10T01:02:52.161Z,98622.16
2023-04-10T01:05:25.709Z,98619.91
2023-04-10T01:08:02.743Z,98624.72
2023-04-10T01:10:39.294Z,98628.72
2023-04-10T01:13:19.025Z,98620.97
2023-04-10T01:15:52.578Z,98631.66
2023-04-10T01:18:27.860Z,98623.16
2023-04-10T01:21:01.795Z,98618.88
2023-04-10T01:23:47.398Z,98619.72
2023-04-10T01:26:20.037Z,98614.31
2023-04-10T01:28:56.388Z,98617.13
2023-04-10T01:31:32.097Z,98620.72
2023-04-10T01:34:07.347Z,98627.75
2023-04-10T01:36:41.252Z,98627.06
2023-04-10T01:39:11.856Z,98620.50
2023-04-10T01:41:45.085Z,98619.31
2023-04-10T01:44:19.226Z,98630.66
2023-04-10T01:46:51.880Z,98615.78
2023-04-10T01:49:22.244Z,98622.13
2023-04-10T01:51:54.462Z,98615.06
2023-04-10T01:54:24.865Z,98617.19
2023-04-10T01:56:55.091Z,98617.66
2023-04-10T01:59:28.281Z,98610.19
2023-04-10T02:02:00.103Z,98608.63
2023-04-10T02:04:30.650Z,98607.78
2023-04-10T02:07:06.598Z,98606.19
2023-04-10T02:09:44.559Z,98604.63
2023-04-10T02:12:20.106Z,98609.78
2023-04-10T02:14:53.632Z,98610.97
2023-04-10T02:17:29.719Z,98608.28
2023-04-10T02:20:00.598Z,98607.16
2023-04-10T02:22:31.032Z,98612.72
2023-04-10T02:25:02.070Z,98608.06
2023-04-10T02:27:37.315Z,98602.19
2023-04-10T02:30:11.273Z,98599.53
2023-04-10T02:32:42.219Z,98598.38
2023-04-10T02:35:12.636Z,98602.78
2023-04-10T02:37:43.016Z,98602.81
2023-04-10T02:40:14.770Z,98606.00
2023-04-10T02:42:53.325Z,98608.47
2023-04-10T02:45:26.293Z,98602.22
2023-04-10T02:47:56.458Z,98606.19
2023-04-10T02:50:29.806Z,98606.91
2023-04-10T02:53:00.202Z,98608.50
2023-04-10T02:55:30.449Z,98610.88
2023-04-10T02:58:00.593Z,98617.94
2023-04-10T03:00:33.692Z,98611.38
2023-04-10T03:03:23.289Z,98615.28
2023-04-10T03:05:57.277Z,98614.91
2023-04-10T03:08:32.705Z,98601.94
2023-04-10T03:11:02.868Z,98604.69
2023-04-10T03:13:32.949Z,98607.03
2023-04-10T03:16:05.885Z,98600.03
2023-04-10T03:18:36.236Z,98611.53
2023-04-10T03:21:06.658Z,98611.97
2023-04-10T03:23:36.999Z,98614.72
2023-04-10T03:26:07.702Z,98609.22
2023-04-10T03:28:41.647Z,98607.69
2023-04-10T03:31:16.232Z,98604.59
2023-04-10T03:33:48.092Z,98596.03
2023-04-10T03:36:18.481Z,98604.31
2023-04-10T03:38:48.582Z,98606.31
2023-04-10T03:41:18.813Z,98609.09
2023-04-10T03:43:49.018Z,98609.47
2023-04-10T03:46:22.867Z,98611.47
2023-04-10T03:48:54.375Z,98608.00
2023-04-10T03:51:25.449Z,98611.47
2023-04-10T03:53:56.049Z,98614.25
2023-04-10T03:56:26.514Z,98625.66
2023-04-10T03:58:56.819Z,98624.88
2023-04-10T04:01:29.591Z,98621.72
2023-04-10T04:04:04.921Z,98624.88
2023-04-10T04:06:53.758Z,98620.59
2023-04-10T04:09:44.016Z,98619.88
2023-04-10T04:12:43.129Z,98621.84
2023-04-10T04:15:26.796Z,98618.38
2023-04-10T04:18:18.411Z,98614.53
2023-04-10T04:20:52.773Z,98612.63
2023-04-10T04:23:46.024Z,98618.94
2023-04-10T04:26:29.565Z,98625.63
2023-04-10T04:29:18.278Z,98611.19
2023-04-10T04:32:01.885Z,98620.56
2023-04-10T04:34:44.061Z,98619.41
2023-04-10T04:37:23.336Z,98624.06
2023-04-10T04:40:05.225Z,98630.34
2023-04-10T04:42:43.216Z,98631.56
2023-04-10T04:45:27.619Z,98635.03
2023-04-10T04:48:18.100Z,98640.53
2023-04-10T04:51:09.640Z,98639.00
2023-04-10T04:53:52.033Z,98639.00
2023-04-10T04:56:58.002Z,98643.75
2023-04-10T04:59:48.416Z,98639.25
2023-04-10T05:02:38.598Z,98637.78
2023-04-10T05:05:27.295Z,98644.22
2023-04-10T05:08:35.298Z,98636.97
2023-04-10T05:11:12.872Z,98640.00
2023-04-10T05:13:59.973Z,98641.56
2023-04-10T05:17:05.196Z,98649.38
2023-04-10T05:19:58.147Z,98637.06
2023-04-10T05:22:48.661Z,98630.97
2023-04-10T05:25:40.149Z,98648.41
2023-04-10T05:28:20.111Z,98646.28
2023-04-10T05:31:16.463Z,98653.16
2023-04-10T05:34:01.327Z,98650.13
2023-04-10T05:36:41.987Z,98656.06
2023-04-10T05:39:28.817Z,98647.84
2023-04-10T05:42:17.680Z,98644.66
2023-04-10T05:44:53.812Z,98649.41
2023-04-10T05:47:34.440Z,98648.41
2023-04-10T05:50:23.316Z,98643.00
2023-04-10T05:53:17.413Z,98650.31
2023-04-10T05:56:06.145Z,98645.13
2023-04-10T05:58:53.406Z,98650.84
2023-04-10T06:01:56.300Z,98651.53
2023-04-10T06:04:27.637Z,98643.13
2023-04-10T06:07:01.458Z,98651.94
2023-04-10T06:09:31.687Z,98644.94
2023-04-10T06:12:01.940Z,98631.63
2023-04-10T06:14:34.780Z,98630.63
2023-04-10T06:17:04.984Z,98637.06
2023-04-10T06:19:35.126Z,98633.25
2023-04-10T06:22:05.298Z,98632.28
2023-04-10T06:24:35.459Z,98627.91
2023-04-10T06:27:05.799Z,98627.69
2023-04-10T06:29:38.590Z,98632.44
2023-04-10T06:32:08.969Z,98630.28
2023-04-10T06:34:41.356Z,98621.13
2023-04-10T06:37:12.985Z,98621.78
2023-04-10T06:39:43.079Z,98611.19
2023-04-10T06:42:13.193Z,98611.97
2023-04-10T06:45:02.286Z,98610.47
2023-04-10T06:47:32.586Z,98605.63
2023-04-10T06:50:02.778Z,98601.50
2023-04-10T06:52:32.976Z,98598.91
2023-04-10T06:55:03.133Z,98598.56
2023-04-10T06:57:33.225Z,98591.00
2023-04-10T07:00:06.269Z,98603.13
2023-04-10T07:02:36.436Z,98607.78
2023-04-10T07:05:07.191Z,98601.16
2023-04-10T07:07:37.437Z,98603.78
2023-04-10T07:10:08.541Z,98596.16
2023-04-10T07:12:38.661Z,98597.75
2023-04-10T07:15:12.699Z,98591.59
2023-04-10T07:17:42.906Z,98597.97
2023-04-10T07:20:14.221Z,98595.66
2023-04-10T07:22:44.335Z,98579.06
2023-04-10T07:25:14.517Z,98593.34
2023-04-10T07:27:44.631Z,98592.06
2023-04-10T07:30:17.510Z,98587.31
2023-04-10T07:32:47.783Z,98580.34
2023-04-10T07:35:18.090Z,98581.34
2023-04-10T07:37:51.802Z,98578.34
2023-04-10T07:40:22.269Z,98579.06
2023-04-10T07:42:53.920Z,98580.97
2023-04-10T07:45:27.967Z,98579.38
2023-04-10T07:47:59.610Z,98582.63
2023-04-10T07:50:30.746Z,98567.75
2023-04-10T07:53:03.709Z,98573.72
2023-04-10T07:55:33.942Z,98574.28
2023-04-10T07:58:04.146Z,98574.09
2023-04-10T08:00:37.409Z,98567.25
2023-04-10T08:03:07.987Z,98566.22
2023-04-10T08:05:38.314Z,98564.59
2023-04-10T08:08:08.539Z,98562.63
2023-04-10T08:10:39.573Z,98558.25
2023-04-10T08:13:09.790Z,98557.66
2023-04-10T08:15:42.568Z,98556.56
2023-04-10T08:18:12.771Z,98553.03
2023-04-10T08:20:42.927Z,98548.91
2023-04-10T08:23:20.484Z,98550.38
2023-04-10T08:25:51.247Z,98537.84
2023-04-10T08:28:22.515Z,98543.16
2023-04-10T08:30:56.505Z,98544.78
2023-04-10T08:33:26.817Z,98547.28
2023-04-10T08:35:57.062Z,98540.38
2023-04-10T08:38:27.899Z,98533.06
2023-04-10T08:40:58.019Z,98530.28
2023-04-10T08:43:29.093Z,98528.13
2023-04-10T08:46:02.247Z,98521.50
2023-04-10T08:48:38.705Z,98518.13
2023-04-10T08:51:18.614Z,98524.72
2023-04-10T08:53:53.998Z,98513.19
2023-04-10T08:56:24.879Z,98514.59
2023-04-10T08:58:55.349Z,98518.94
2023-04-10T09:01:28.611Z,98524.63
2023-04-10T09:03:59.764Z,98513.34
2023-04-10T09:06:30.360Z,98507.44
2023-04-10T09:12:04.115Z,98506.69
2023-04-10T09:14:35.813Z,98501.88
2023-04-10T09:17:24.825Z,98500.06
2023-04-10T09:19:57.370Z,98484.84
2023-04-10T09:22:34.044Z,98493.63
2023-04-10T09:25:05.942Z,98487.28
2023-04-10T09:27:39.544Z,98486.59
2023-04-10T09:30:13.306Z,98481.66
2023-04-10T09:32:47.493Z,98481.69
2023-04-10T09:35:18.793Z,98480.56
2023-04-10T09:37:49.286Z,98481.50
2023-04-10T09:40:27.406Z,98489.78
2023-04-10T09:42:58.998Z,98471.56
2023-04-10T09:45:29.178Z,98463.38
2023-04-10T09:48:10.731Z,98466.47
2023-04-10T09:50:42.403Z,98459.31
2023-04-10T09:53:12.876Z,98460.28
2023-04-10T09:55:43.921Z,98445.53
2023-04-10T09:58:15.133Z,98441.78
2023-04-10T10:00:46.232Z,98426.47
2023-04-10T10:03:21.498Z,98427.72
2023-04-10T10:05:53.530Z,98421.41
2023-04-10T10:08:24.189Z,98415.88
2023-04-10T10:10:56.757Z,98422.78
2023-04-10T10:13:29.731Z,98418.44
2023-04-10T10:16:07.719Z,98418.00
2023-04-10T10:18:45.747Z,98409.81
2023-04-10T10:21:17.092Z,98416.88
2023-04-10T10:23:47.994Z,98405.41
2023-04-10T10:26:19.012Z,98407.41
2023-04-10T10:28:50.128Z,98395.59
2023-04-10T10:31:22.802Z,98396.63
2023-04-10T10:33:57.442Z,98386.31
2023-04-10T10:36:28.424Z,98374.91
2023-04-10T10:39:11.858Z,98369.84
2023-04-10T10:41:47.733Z,98364.59
2023-04-10T10:44:24.472Z,98366.66
2023-04-10T10:47:01.698Z,98364.25
2023-04-10T10:50:01.971Z,98365.34
2023-04-10T10:52:46.224Z,98344.44
2023-04-10T10:55:35.283Z,98351.25
2023-04-10T10:58:06.647Z,98344.25
2023-04-10T11:01:13.005Z,98350.47
2023-04-10T11:03:44.871Z,98346.19
2023-04-10T11:06:19.883Z,98344.97
2023-04-10T11:08:53.795Z,98336.00
2023-04-10T11:11:25.620Z,98334.78
2023-04-10T11:14:23.337Z,98336.03
2023-04-10T11:16:53.635Z,98339.59
2023-04-10T11:19:26.525Z,98331.66
2023-04-10T11:22:15.720Z,98315.13
2023-04-10T11:25:02.822Z,98311.53
2023-04-10T11:27:45.135Z,98334.66
2023-04-10T11:30:30.999Z,98315.28
2023-04-10T11:33:01.698Z,98308.84
2023-04-10T11:35:32.210Z,98306.25
2023-04-10T11:38:15.994Z,98306.38
2023-04-10T11:41:04.428Z,98303.59
2023-04-10T11:43:36.131Z,98289.78
2023-04-10T11:46:09.087Z,98299.16
2023-04-10T11:48:39.919Z,98299.72
2023-04-10T11:51:11.660Z,98277.50
2023-04-10T11:53:45.221Z,98288.88
2023-04-10T11:56:23.311Z,98285.00
2023-04-10T11:58:55.368Z,98288.81
2023-04-10T12:01:26.459Z,98294.53
2023-04-10T12:03:57.312Z,98288.66
2023-04-10T12:06:27.850Z,98289.34
2023-04-10T12:09:00.688Z,98283.28
2023-04-10T12:11:30.918Z,98288.88
2023-04-10T12:14:01.157Z,98273.88
2023-04-10T12:16:31.386Z,98277.16
2023-04-10T12:19:01.753Z,98284.50
2023-04-10T12:21:31.993Z,98264.69
2023-04-10T12:24:04.854Z,98262.31
2023-04-10T12:26:35.068Z,98262.66
2023-04-10T12:29:06.596Z,98254.81
2023-04-10T12:31:39.231Z,98264.59
2023-04-10T12:34:11.382Z,98253.06
2023-04-10T12:36:41.758Z,98260.13
2023-04-10T12:39:27.051Z,98259.50
2023-04-10T12:41:57.282Z,98255.13
2023-04-10T12:44:27.585Z,98254.22
2023-04-10T12:47:02.975Z,98237.34
2023-04-10T12:49:33.225Z,98240.66
2023-04-10T12:52:03.419Z,98237.13
2023-04-10T12:54:37.604Z,98229.16
2023-04-10T12:57:09.621Z,98231.50
2023-04-10T12:59:39.838Z,98236.59
2023-04-10T13:02:10.116Z,98232.94
2023-04-10T13:04:40.688Z,98221.34
2023-04-10T13:07:11.045Z,98221.16
2023-04-10T13:09:44.023Z,98219.00
2023-04-10T13:12:14.780Z,98202.75
2023-04-10T13:14:44.985Z,98190.59
2023-04-10T13:17:15.192Z,98198.88
2023-04-10T13:19:45.477Z,98195.22
2023-04-10T13:22:15.682Z,98184.06
2023-04-10T13:24:48.646Z,98182.03
2023-04-10T13:27:18.851Z,98166.63
2023-04-10T13:29:49.044Z,98173.53
2023-04-10T13:32:19.289Z,98195.78
2023-04-10T13:34:49.510Z,98170.31
2023-04-10T13:37:20.561Z,98157.22
2023-04-10T13:39:53.689Z,98136.78
2023-04-10T13:42:23.942Z,98139.94
2023-04-10T13:44:54.166Z,98150.78
2023-04-10T13:47:24.561Z,98131.38
2023-04-10T13:49:54.810Z,98138.88
2023-04-10T13:52:25.031Z,98118.31
2023-04-10T13:54:57.870Z,98120.34
2023-04-10T13:57:28.091Z,98107.78
2023-04-10T13:59:58.314Z,98105.19
2023-04-10T14:02:28.764Z,98113.16
2023-04-10T14:04:59.044Z,98094.81
2023-04-10T14:07:29.411Z,98099.22
2023-04-10T14:10:02.287Z,98099.94
2023-04-10T14:12:32.538Z,98081.75
2023-04-10T14:15:02.775Z,98092.50
2023-04-10T14:17:33.120Z,98093.78
2023-04-10T14:20:03.306Z,98077.66
2023-04-10T14:22:33.523Z,98072.13
2023-04-10T14:25:12.945Z,98065.78
2023-04-10T14:27:44.048Z,98065.94
2023-04-10T14:30:15.011Z,98059.44
2023-04-10T14:32:45.247Z,98056.78
2023-04-10T14:35:15.729Z,98063.97
2023-04-10T14:37:45.930Z,98060.81
2023-04-10T14:40:18.782Z,98061.25
2023-04-10T14:42:48.985Z,98044.72
2023-04-10T14:45:20.010Z,98038.72
2023-04-10T14:47:50.402Z,98044.59
2023-04-10T14:50:20.863Z,98057.06
2023-04-10T14:52:51.092Z,98044.69
2023-04-10T14:55:24.987Z,98032.25
2023-04-10T14:57:56.612Z,98037.09
2023-04-10T15:00:29.980Z,98032.94
2023-04-10T15:03:00.390Z,98030.91
2023-04-10T15:05:31.211Z,98024.00
2023-04-10T15:08:01.512Z,98018.53
2023-04-10T15:10:35.007Z,98025.44
2023-04-10T15:13:06.222Z,98022.88
2023-04-10T15:15:36.480Z,98011.66
2023-04-10T15:18:06.896Z,98009.47
2023-04-10T15:20:37.100Z,98011.53
2023-04-10T15:23:07.274Z,98016.41
2023-04-10T15:25:40.223Z,97999.72
2023-04-10T15:28:10.902Z,97997.13
2023-04-10T15:30:41.137Z,98001.34
2023-04-10T15:33:11.448Z,97992.97
2023-04-10T15:35:41.659Z,98002.31
2023-04-10T15:38:11.867Z,97984.28
2023-04-10T15:40:44.769Z,98003.31
2023-04-10T15:43:15.987Z,97977.41
2023-04-10T15:45:46.776Z,97981.66
2023-04-10T15:48:16.938Z,97978.22
2023-04-10T15:50:47.338Z,97975.44
2023-04-10T15:53:17.784Z,97973.59
2023-04-10T15:55:50.669Z,97965.03
2023-04-10T15:58:20.908Z,97969.13
2023-04-10T16:00:51.121Z,97964.22
2023-04-10T16:03:21.417Z,97957.34
2023-04-10T16:05:51.745Z,97947.97
2023-04-10T16:08:21.982Z,97946.13
2023-04-10T16:10:54.818Z,97950.69
2023-04-10T16:13:25.148Z,97944.34
2023-04-10T16:15:55.468Z,97945.56
2023-04-10T16:18:25.718Z,97944.00
2023-04-10T16:20:55.978Z,97942.66
2023-04-10T16:23:26.234Z,97934.16
2023-04-10T16:25:59.096Z,97935.31
2023-04-10T16:28:29.233Z,97937.28
2023-04-10T16:30:59.809Z,97944.53
2023-04-10T16:33:29.990Z,97941.25
2023-04-10T16:36:03.151Z,97939.63
2023-04-10T16:38:34.801Z,97928.00
2023-04-10T16:41:10.179Z,97930.63
2023-04-10T16:43:40.440Z,97924.78
2023-04-10T16:46:10.882Z,97932.47
2023-04-10T16:48:41.370Z,97925.38
2023-04-10T16:51:12.604Z,97925.41
2023-04-10T16:53:42.750Z,97915.50
2023-04-10T16:56:15.661Z,97906.88
2023-04-10T16:58:45.901Z,97910.69
2023-04-10T17:01:19.954Z,97900.03
2023-04-10T17:03:50.464Z,97907.41
2023-04-10T17:06:21.360Z,97904.84
2023-04-10T17:08:51.628Z,97906.09
2023-04-10T17:11:24.489Z,97902.56
2023-04-10T17:13:54.683Z,97895.47
2023-04-10T17:16:24.986Z,97894.16
2023-04-10T17:18:55.253Z,97892.41
2023-04-10T17:21:27.362Z,97894.16
2023-04-10T17:23:57.598Z,97892.38
2023-04-10T17:26:31.025Z,97888.25
2023-04-10T17:29:01.297Z,97885.22
2023-04-10T17:31:32.049Z,97878.59
2023-04-10T17:34:02.273Z,97884.69
2023-04-10T17:36:32.742Z,97887.47
2023-04-10T17:39:03.264Z,97890.50
2023-04-10T17:41:36.090Z,97878.03
2023-04-10T17:44:06.323Z,97884.59
2023-04-10T17:46:36.597Z,97877.97
2023-04-10T17:49:06.916Z,97876.69
2023-04-10T17:51:37.353Z,97874.91
2023-04-10T17:54:07.609Z,97862.44
2023-04-10T17:56:40.479Z,97868.50
2023-04-10T17:59:10.703Z,97870.53
2023-04-10T18:01:41.090Z,97865.63
2023-04-10T18:04:11.597Z,97863.31
2023-04-10T18:06:41.834Z,97872.41
2023-04-10T18:09:12.118Z,97864.75
2023-04-10T18:11:45.083Z,97863.22
2023-04-10T18:14:15.369Z,97856.84
2023-04-10T18:16:45.613Z,97852.69
2023-04-10T18:19:15.872Z,97861.00
2023-04-10T18:21:46.268Z,97864.25
2023-04-10T18:24:16.877Z,97865.00
2023-04-10T18:26:50.916Z,97857.69
2023-04-10T18:29:21.107Z,97853.09
2023-04-10T18:31:51.661Z,97855.63
2023-04-10T18:34:21.871Z,97844.41
2023-04-10T18:36:52.080Z,97842.19
2023-04-10T18:39:22.398Z,97845.28
2023-04-10T18:41:57.553Z,97844.78
2023-04-10T18:44:29.566Z,97838.88
2023-04-10T18:47:04.355Z,97841.88
2023-04-10T18:49:35.208Z,97837.06
2023-04-10T18:52:05.551Z,97833.31
2023-04-10T18:54:36.560Z,97829.28
2023-04-10T18:57:09.533Z,97831.44
2023-04-10T18:59:40.956Z,97831.97
2023-04-10T19:02:11.238Z,97818.00
2023-04-10T19:04:41.672Z,97816.66
2023-04-10T19:07:11.855Z,97813.56
2023-04-10T19:09:42.092Z,97817.91
2023-04-10T19:12:14.956Z,97815.94
2023-04-10T19:14:45.214Z,97818.47
2023-04-10T19:17:15.424Z,97807.28
2023-04-10T19:19:45.640Z,97808.97
2023-04-10T19:22:16.583Z,97803.88
2023-04-10T19:24:46.814Z,97807.63
2023-04-10T19:27:19.632Z,97805.03
2023-04-10T19:29:49.817Z,97808.88
2023-04-10T19:32:19.998Z,97811.38
2023-04-10T19:34:51.627Z,97806.81
2023-04-10T19:37:22.232Z,97803.47
2023-04-10T19:39:52.479Z,97799.97
2023-04-10T19:42:25.225Z,97796.19
2023-04-10T19:44:55.778Z,97791.19
2023-04-10T19:47:26.112Z,97789.94
2023-04-10T19:49:56.400Z,97779.50
2023-04-10T19:52:26.799Z,97764.78
2023-04-10T19:54:57.041Z,97749.81
2023-04-10T19:57:29.980Z,97741.19
2023-04-10T20:00:00.478Z,97735.34
2023-04-10T20:02:31.040Z,97742.16
2023-04-10T20:05:01.750Z,97744.41
2023-04-10T20:07:32.153Z,97740.03
2023-04-10T20:10:03.555Z,97725.66
2023-04-10T20:12:36.563Z,97719.28
2023-04-10T20:15:08.641Z,97716.94
2023-04-10T20:17:39.215Z,97715.88
2023-04-10T20:20:12.490Z,97699.44
2023-04-10T20:22:43.315Z,97685.00
2023-04-10T20:25:13.665Z,97683.81
2023-04-10T20:27:46.450Z,97690.56
2023-04-10T20:30:16.801Z,97690.56
2023-04-10T20:32:47.311Z,97689.47
2023-04-10T20:35:17.688Z,97698.03
2023-04-10T20:37:47.898Z,97693.19
2023-04-10T20:40:18.195Z,97679.09
2023-04-10T20:42:52.970Z,97683.31
2023-04-10T20:45:23.215Z,97681.78
2023-04-10T20:47:53.502Z,97674.00
2023-04-10T20:50:23.777Z,97679.56
2023-04-10T20:52:54.004Z,97671.38
2023-04-10T20:55:24.212Z,97659.97
2023-04-10T20:57:58.241Z,97673.88
2023-04-10T21:00:31.006Z,97651.63
2023-04-10T21:03:01.434Z,97648.81
2023-04-10T21:05:31.744Z,97657.47
2023-04-10T21:08:02.038Z,97653.63
2023-04-10T21:10:32.478Z,97646.53
2023-04-10T21:13:05.750Z,97652.09
2023-04-10T21:15:35.961Z,97656.41
2023-04-10T21:18:06.514Z,97645.28
2023-04-10T21:20:36.961Z,97641.94
2023-04-10T21:23:07.207Z,97642.66
2023-04-10T21:25:38.889Z,97638.81
2023-04-10T21:28:11.744Z,97641.69
2023-04-10T21:30:42.006Z,97651.66
2023-04-10T21:33:12.225Z,97645.66
2023-04-10T21:35:45.429Z,97638.25
2023-04-10T21:38:16.018Z,97640.56
2023-04-10T21:40:53.436Z,97637.38
2023-04-10T21:43:26.271Z,97628.22
2023-04-10T21:45:56.689Z,97636.34
2023-04-10T21:48:26.969Z,97631.53
2023-04-10T21:50:57.348Z,97647.50
2023-04-10T21:53:27.536Z,97645.78
2023-04-10T21:55:57.761Z,97649.44
2023-04-10T21:58:32.435Z,97641.19
2023-04-10T22:01:03.594Z,97638.78
2023-04-10T22:03:34.092Z,97625.84
2023-04-10T22:06:04.417Z,97626.56
2023-04-10T22:08:34.637Z,97627.50
2023-04-10T22:11:04.843Z,97616.69
2023-04-10T22:13:37.693Z,97601.81
2023-04-10T22:16:08.364Z,97588.44
2023-04-10T22:18:38.613Z,97591.50
2023-04-10T22:21:09.168Z,97588.19
2023-04-10T22:23:39.356Z,97580.50
2023-04-10T22:26:10.116Z,97579.03
2023-04-10T22:28:42.989Z,97576.66
2023-04-10T22:31:17.705Z,97580.63
2023-04-10T22:33:49.409Z,97576.31
2023-04-10T22:36:19.598Z,97578.84
2023-04-10T22:38:49.774Z,97575.38
2023-04-10T22:41:19.994Z,97575.38
2023-04-10T22:43:53.061Z,97569.28
2023-04-10T22:46:23.328Z,97570.78
2023-04-10T22:48:53.806Z,97567.19
2023-04-10T22:51:24.147Z,97560.84
2023-04-10T22:53:54.554Z,97546.38
2023-04-10T22:56:26.726Z,97536.03
2023-04-10T22:58:59.524Z,97527.19
2023-04-10T23:01:30.271Z,97519.66
2023-04-10T23:04:00.482Z,97515.78
2023-04-10T23:06:32.028Z,97517.63
2023-04-10T23:09:02.238Z,97511.81
2023-04-10T23:11:33.411Z,97514.56
2023-04-10T23:14:06.305Z,97507.88
2023-04-10T23:16:36.498Z,97503.91
2023-04-10T23:19:06.653Z,97493.47
2023-04-10T23:21:36.858Z,97487.91
2023-04-10T23:24:07.431Z,97486.63
2023-04-10T23:26:37.596Z,97484.31
2023-04-10T23:29:10.349Z,97469.69
2023-04-10T23:31:40.703Z,97466.97
2023-04-10T23:34:11.087Z,97467.13
2023-04-10T23:36:41.384Z,97457.22
2023-04-10T23:39:11.701Z,97461.03
2023-04-10T23:41:41.976Z,97451.13
2023-04-10T23:44:14.901Z,97455.00
2023-04-10T23:46:45.056Z,97432.19
2023-04-10T23:49:15.324Z,97423.88
2023-04-10T23:51:45.497Z,97416.53
2023-04-10T23:54:16.006Z,97406.19
2023-04-10T23:56:46.167Z,97392.88
2023-04-10T23:59:19.336Z,97388.72
